createdAt,value
2022-08-22T00:00:17.295Z,29.00
2022-08-22T00:03:04.651Z,20.40
2022-08-22T00:03:52.688Z,25.50
2022-08-22T00:06:29.868Z,24.70
2022-08-22T00:09:06.476Z,30.90
2022-08-22T00:11:58.379Z,27.60
2022-08-22T00:15:00.560Z,25.00
2022-08-22T00:17:53.492Z,29.60
2022-08-22T00:20:43.781Z,27.40
2022-08-22T00:23:35.788Z,28.00
2022-08-22T00:29:03.510Z,26.70
2022-08-22T00:32:10.292Z,26.90
2022-08-22T00:35:03.624Z,25.70
2022-08-22T00:37:47.690Z,26.50
2022-08-22T00:41:12.046Z,24.90
2022-08-22T00:44:05.049Z,26.20
2022-08-22T00:46:40.311Z,31.70
2022-08-22T00:49:51.721Z,26.10
2022-08-22T00:53:01.997Z,25.30
2022-08-22T00:56:09.766Z,24.90
2022-08-22T00:59:00.186Z,30.80
2022-08-22T01:02:24.317Z,28.10
2022-08-22T01:05:25.177Z,28.40
2022-08-22T01:08:19.451Z,30.30
2022-08-22T01:11:04.850Z,31.40
2022-08-22T01:13:50.860Z,27.10
2022-08-22T01:16:44.460Z,27.60
2022-08-22T01:19:34.320Z,27.50
2022-08-22T01:22:35.775Z,28.60
2022-08-22T01:25:28.275Z,27.30
2022-08-22T01:28:29.962Z,29.20
2022-08-22T01:31:37.715Z,26.90
2022-08-22T01:34:28.023Z,29.10
2022-08-22T01:37:33.510Z,27.90
2022-08-22T01:40:24.408Z,33.30
2022-08-22T01:43:05.355Z,26.70
2022-08-22T01:45:52.402Z,26.90
2022-08-22T01:48:50.366Z,27.00
2022-08-22T01:51:30.177Z,30.40
2022-08-22T01:54:15.054Z,30.60
2022-08-22T01:56:49.402Z,30.60
2022-08-22T01:59:42.267Z,26.30
2022-08-22T02:02:24.711Z,28.90
2022-08-22T02:05:03.364Z,28.00
2022-08-22T02:08:18.204Z,30.90
2022-08-22T02:11:02.259Z,32.00
2022-08-22T02:13:52.672Z,30.20
2022-08-22T02:16:35.753Z,32.50
2022-08-22T02:19:17.449Z,31.60
2022-08-22T02:22:05.190Z,32.90
2022-08-22T02:24:47.170Z,31.00
2022-08-22T02:27:40.244Z,28.90
2022-08-22T02:30:23.765Z,31.50
2022-08-22T02:33:10.706Z,37.00
2022-08-22T02:36:05.636Z,28.60
2022-08-22T02:38:51.603Z,31.10
2022-08-22T02:42:00.600Z,30.10
2022-08-22T02:44:39.731Z,29.00
2022-08-22T02:48:04.287Z,34.80
2022-08-22T02:50:45.873Z,33.30
2022-08-22T02:53:40.431Z,32.70
2022-08-22T02:56:23.936Z,30.80
2022-08-22T02:59:26.539Z,32.50
2022-08-22T03:02:00.828Z,31.00
2022-08-22T03:04:37.634Z,32.80
2022-08-22T03:07:19.078Z,36.10
2022-08-22T03:10:03.649Z,32.20
2022-08-22T03:13:08.531Z,33.00
2022-08-22T03:15:56.033Z,35.00
2022-08-22T03:18:33.104Z,35.90
2022-08-22T03:21:36.170Z,33.70
2022-08-22T03:24:40.550Z,35.20
2022-08-22T03:27:52.581Z,37.90
2022-08-22T03:30:36.071Z,35.90
2022-08-22T03:33:28.415Z,38.40
2022-08-22T03:38:38.138Z,38.70
2022-08-22T03:41:28.196Z,37.50
2022-08-22T03:44:40.758Z,39.20
2022-08-22T03:47:16.369Z,34.70
2022-08-22T03:50:24.303Z,38.90
2022-08-22T03:53:19.217Z,39.10
2022-08-22T03:56:09.099Z,41.70
2022-08-22T03:59:10.207Z,42.90
2022-08-22T04:01:43.192Z,48.30
2022-08-22T04:04:45.610Z,34.60
2022-08-22T04:07:46.876Z,36.50
2022-08-22T04:13:26.111Z,35.10
2022-08-22T04:16:17.531Z,36.00
2022-08-22T04:18:56.030Z,36.50
2022-08-22T04:21:57.784Z,37.60
2022-08-22T04:24:52.368Z,40.70
2022-08-22T04:27:56.888Z,39.80
2022-08-22T04:30:44.645Z,37.90
2022-08-22T04:33:29.479Z,40.50
2022-08-22T04:36:32.638Z,41.60
2022-08-22T04:39:40.823Z,51.10
2022-08-22T04:42:40.839Z,44.30
2022-08-22T04:45:23.855Z,40.90
2022-08-22T04:48:08.192Z,51.50
2022-08-22T04:51:08.510Z,58.80
2022-08-22T04:53:57.048Z,46.90
2022-08-22T04:57:04.916Z,43.40
2022-08-22T04:59:39.090Z,39.70
2022-08-22T05:02:22.951Z,40.20
2022-08-22T05:05:04.895Z,37.40
2022-08-22T05:08:03.432Z,39.60
2022-08-22T05:10:42.435Z,39.50
2022-08-22T05:13:28.254Z,38.60
2022-08-22T05:16:07.559Z,41.80
2022-08-22T05:19:16.763Z,45.00
2022-08-22T05:21:53.358Z,45.10
2022-08-22T05:24:35.779Z,46.60
2022-08-22T05:27:31.292Z,45.80
2022-08-22T05:30:17.289Z,45.30
2022-08-22T05:33:07.510Z,38.20
2022-08-22T05:42:32.863Z,46.40
2022-08-22T05:45:12.054Z,40.00
2022-08-22T05:48:00.770Z,43.80
2022-08-22T05:50:51.063Z,43.20
2022-08-22T05:53:31.571Z,43.50
2022-08-22T05:56:18.358Z,51.80
2022-08-22T05:59:08.462Z,46.80
2022-08-22T06:01:52.429Z,45.40
2022-08-22T06:04:34.499Z,48.70
2022-08-22T06:07:13.637Z,52.50
2022-08-22T06:09:51.793Z,55.20
2022-08-22T06:12:46.170Z,45.60
2022-08-22T06:15:24.197Z,41.50
2022-08-22T06:18:15.445Z,46.50
2022-08-22T06:20:54.885Z,46.60
2022-08-22T06:23:39.008Z,47.60
2022-08-22T06:26:20.226Z,36.00
2022-08-22T06:29:01.631Z,39.10
2022-08-22T06:31:43.269Z,39.60
2022-08-22T06:34:26.146Z,43.80
2022-08-22T06:37:04.078Z,41.70
2022-08-22T06:39:44.445Z,43.50
2022-08-22T06:42:27.019Z,41.40
2022-08-22T06:45:05.341Z,48.10
2022-08-22T06:47:51.041Z,47.70
2022-08-22T06:50:35.209Z,44.00
2022-08-22T06:53:22.187Z,42.00
2022-08-22T06:56:06.063Z,38.50
2022-08-22T06:58:45.713Z,48.90
2022-08-22T07:01:26.456Z,39.10
2022-08-22T07:04:13.921Z,41.70
2022-08-22T07:06:51.022Z,40.00
2022-08-22T07:09:37.557Z,40.60
2022-08-22T07:12:20.103Z,39.10
2022-08-22T07:14:56.609Z,40.50
2022-08-22T07:17:36.767Z,41.80
2022-08-22T07:20:24.131Z,39.70
2022-08-22T07:23:08.355Z,40.40
2022-08-22T07:26:15.556Z,41.20
2022-08-22T07:29:14.518Z,43.50
2022-08-22T07:32:12.640Z,35.90
2022-08-22T07:35:16.395Z,42.50
2022-08-22T07:38:23.358Z,40.20
2022-08-22T07:41:32.318Z,44.30
2022-08-22T07:44:26.250Z,45.90
2022-08-22T07:47:07.655Z,43.30
2022-08-22T07:49:55.834Z,51.70
2022-08-22T07:52:38.567Z,37.30
2022-08-22T07:55:18.775Z,41.70
2022-08-22T07:58:04.300Z,43.80
2022-08-22T08:00:43.769Z,33.90
2022-08-22T08:03:17.745Z,40.80
2022-08-22T08:05:51.566Z,38.40
2022-08-22T08:08:42.262Z,100.20
2022-08-22T08:11:19.395Z,49.90
2022-08-22T08:14:13.570Z,41.20
2022-08-22T08:17:04.517Z,60.60
2022-08-22T08:19:42.797Z,47.60
2022-08-22T08:22:26.979Z,43.40
2022-08-22T08:25:02.890Z,39.40
2022-08-22T08:27:59.880Z,45.90
2022-08-22T08:30:51.352Z,36.20
2022-08-22T08:33:27.231Z,43.70
2022-08-22T08:36:18.174Z,30.90
2022-08-22T08:39:22.040Z,42.50
2022-08-22T08:42:15.297Z,36.20
2022-08-22T08:45:05.580Z,39.50
2022-08-22T08:47:40.678Z,37.40
2022-08-22T08:50:44.438Z,43.10
2022-08-22T08:54:00.031Z,36.90
2022-08-22T08:57:13.118Z,37.90
2022-08-22T08:59:55.703Z,37.30
2022-08-22T09:03:08.700Z,40.90
2022-08-22T09:05:50.752Z,49.10
2022-08-22T09:08:32.092Z,49.20
2022-08-22T09:11:52.261Z,39.60
2022-08-22T09:14:39.098Z,35.80
2022-08-22T09:17:41.809Z,38.60
2022-08-22T09:20:48.201Z,42.10
2022-08-22T09:23:56.667Z,41.50
2022-08-22T09:26:34.905Z,30.10
2022-08-22T09:29:55.204Z,37.10
2022-08-22T09:32:52.938Z,49.50
2022-08-22T09:35:51.339Z,39.10
2022-08-22T09:38:35.695Z,42.60
2022-08-22T09:41:43.417Z,52.80
2022-08-22T09:44:17.842Z,47.50
2022-08-22T09:47:10.479Z,33.90
2022-08-22T09:50:14.529Z,44.60
2022-08-22T09:53:12.469Z,46.70
2022-08-22T09:55:56.178Z,46.10
2022-08-22T09:58:58.273Z,47.40
2022-08-22T10:02:16.214Z,56.10
2022-08-22T10:05:00.115Z,51.90
2022-08-22T10:07:40.699Z,47.10
2022-08-22T10:10:36.305Z,57.20
2022-08-22T10:13:36.618Z,48.40
2022-08-22T10:16:18.490Z,48.70
2022-08-22T10:19:30.907Z,54.80
2022-08-22T10:22:34.191Z,57.40
2022-08-22T10:25:29.748Z,50.60
2022-08-22T10:28:04.936Z,60.30
2022-08-22T10:30:50.144Z,58.80
2022-08-22T10:33:31.793Z,58.50
2022-08-22T10:38:56.244Z,60.40
2022-08-22T10:41:40.603Z,63.10
2022-08-22T10:47:09.017Z,47.20
2022-08-22T10:50:11.538Z,58.90
2022-08-22T10:53:17.540Z,40.20
2022-08-22T10:56:08.119Z,44.40
2022-08-22T10:58:58.928Z,60.40
2022-08-22T11:01:41.981Z,51.50
2022-08-22T11:04:20.350Z,23.30
2022-08-22T11:07:36.063Z,49.20
2022-08-22T11:10:34.904Z,51.00
2022-08-22T11:13:32.465Z,52.10
2022-08-22T11:16:14.195Z,50.10
2022-08-22T11:21:54.326Z,45.30
2022-08-22T11:27:40.877Z,40.60
2022-08-22T11:30:22.699Z,46.00
2022-08-22T11:33:13.869Z,52.20
2022-08-22T11:36:06.141Z,45.20
2022-08-22T11:39:02.176Z,40.00
2022-08-22T11:42:04.896Z,41.30
2022-08-22T11:45:00.966Z,48.90
2022-08-22T11:47:44.346Z,50.10
2022-08-22T11:50:45.780Z,38.00
2022-08-22T11:53:31.064Z,39.20
2022-08-22T11:56:19.226Z,35.10
2022-08-22T11:59:06.188Z,50.30
2022-08-22T12:01:50.898Z,41.50
2022-08-22T12:04:46.825Z,50.60
2022-08-22T12:07:31.840Z,42.40
2022-08-22T12:10:18.256Z,35.80
2022-08-22T12:13:01.514Z,31.20
2022-08-22T12:15:47.111Z,34.80
2022-08-22T12:18:37.758Z,38.60
2022-08-22T12:21:52.898Z,29.50
2022-08-22T12:24:29.198Z,30.20
2022-08-22T12:27:28.532Z,39.80
2022-08-22T12:30:30.956Z,29.30
2022-08-22T12:33:06.532Z,30.50
2022-08-22T12:36:22.800Z,41.70
2022-08-22T12:39:25.009Z,30.80
2022-08-22T12:42:25.677Z,36.70
2022-08-22T12:45:18.956Z,20.80
2022-08-22T12:48:04.505Z,28.50
2022-08-22T12:50:52.919Z,30.40
2022-08-22T12:54:00.702Z,30.10
2022-08-22T12:56:51.662Z,26.20
2022-08-22T12:59:43.481Z,29.10
2022-08-22T13:02:40.644Z,29.60
2022-08-22T13:05:40.956Z,23.70
2022-08-22T13:08:26.471Z,28.40
2022-08-22T13:11:23.236Z,30.40
2022-08-22T13:14:03.154Z,28.30
2022-08-22T13:16:51.011Z,27.50
2022-08-22T13:19:34.660Z,24.00
2022-08-22T13:22:12.037Z,23.40
2022-08-22T13:25:00.827Z,33.00
2022-08-22T13:28:03.427Z,26.00
2022-08-22T13:30:43.978Z,29.10
2022-08-22T13:33:35.395Z,30.10
2022-08-22T13:39:07.029Z,29.80
2022-08-22T13:41:50.303Z,24.50
2022-08-22T13:44:33.232Z,33.30
2022-08-22T13:47:20.409Z,27.30
2022-08-22T13:50:17.760Z,28.30
2022-08-22T13:53:00.903Z,25.10
2022-08-22T13:56:03.331Z,25.40
2022-08-22T13:58:55.979Z,25.20
2022-08-22T14:01:52.997Z,30.10
2022-08-22T14:04:34.713Z,28.20
2022-08-22T14:07:23.939Z,25.10
2022-08-22T14:10:14.642Z,25.00
2022-08-22T14:13:13.904Z,25.50
2022-08-22T14:15:47.161Z,24.40
2022-08-22T14:18:31.944Z,22.60
2022-08-22T14:21:40.653Z,22.80
2022-08-22T14:24:45.685Z,25.80
2022-08-22T14:27:35.952Z,31.80
2022-08-22T14:30:15.602Z,24.10
2022-08-22T14:33:00.300Z,33.80
2022-08-22T14:35:44.343Z,24.10
2022-08-22T14:38:31.563Z,27.90
2022-08-22T14:41:09.594Z,27.40
2022-08-22T14:44:05.792Z,28.10
2022-08-22T14:46:54.075Z,31.20
2022-08-22T14:49:38.224Z,39.30
2022-08-22T14:52:29.681Z,35.40
2022-08-22T14:55:15.172Z,27.50
2022-08-22T14:57:52.713Z,40.10
2022-08-22T15:00:50.145Z,35.00
2022-08-22T15:03:30.804Z,31.30
2022-08-22T15:06:13.868Z,30.20
2022-08-22T15:08:49.330Z,29.90
2022-08-22T15:11:32.032Z,29.80
2022-08-22T15:14:17.612Z,31.30
2022-08-22T15:16:58.074Z,30.20
2022-08-22T15:19:41.707Z,30.40
2022-08-22T15:22:29.748Z,35.00
2022-08-22T15:25:19.458Z,29.40
2022-08-22T15:28:20.500Z,25.00
2022-08-22T15:31:16.795Z,26.60
2022-08-22T15:33:50.720Z,27.30
2022-08-22T15:36:29.114Z,30.80
2022-08-22T15:39:34.135Z,27.60
2022-08-22T15:42:11.196Z,28.40
2022-08-22T15:44:56.804Z,26.30
2022-08-22T15:47:40.159Z,38.10
2022-08-22T15:50:48.963Z,31.50
2022-08-22T15:53:33.579Z,32.10
2022-08-22T15:56:16.195Z,33.30
2022-08-22T15:59:14.147Z,35.80
2022-08-22T16:02:23.824Z,22.90
2022-08-22T16:05:18.699Z,23.50
2022-08-22T16:08:08.468Z,26.70
2022-08-22T16:11:06.432Z,19.30
2022-08-22T16:13:44.998Z,23.30
2022-08-22T16:16:47.378Z,28.20
2022-08-22T16:21:59.760Z,32.60
2022-08-22T16:24:34.041Z,26.20
2022-08-22T16:27:26.615Z,26.70
2022-08-22T16:30:09.524Z,39.90
2022-08-22T16:32:52.625Z,27.30
2022-08-22T16:36:00.355Z,28.50
2022-08-22T16:38:44.879Z,23.80
2022-08-22T16:41:41.259Z,29.90
2022-08-22T16:44:41.194Z,25.20
2022-08-22T16:47:15.868Z,24.50
2022-08-22T16:49:54.076Z,25.50
2022-08-22T16:52:29.464Z,22.00
2022-08-22T16:55:36.459Z,23.00
2022-08-22T16:58:56.138Z,22.20
2022-08-22T17:01:48.224Z,22.00
2022-08-22T17:04:38.554Z,23.80
2022-08-22T17:07:41.344Z,25.50
2022-08-22T17:10:41.327Z,27.00
2022-08-22T17:13:40.880Z,27.80
2022-08-22T17:16:53.930Z,27.50
2022-08-22T17:19:46.410Z,24.00
2022-08-22T17:22:28.972Z,22.00
2022-08-22T17:25:31.112Z,28.80
2022-08-22T17:28:38.778Z,20.70
2022-08-22T17:31:24.539Z,18.90
2022-08-22T17:34:34.929Z,22.30
2022-08-22T17:37:22.883Z,22.00
2022-08-22T17:40:29.542Z,21.20
2022-08-22T17:43:27.594Z,22.90
2022-08-22T17:46:13.241Z,35.20
2022-08-22T17:49:24.562Z,26.00
2022-08-22T17:52:41.544Z,25.60
2022-08-22T17:55:28.935Z,24.10
2022-08-22T17:58:37.463Z,29.50
2022-08-22T18:01:39.065Z,30.20
2022-08-22T18:04:26.323Z,31.40
2022-08-22T18:07:26.277Z,25.50
2022-08-22T18:10:24.789Z,29.50
2022-08-22T18:13:07.208Z,29.70
2022-08-22T18:16:06.288Z,28.80
2022-08-22T18:18:53.046Z,33.50
2022-08-22T18:21:49.227Z,28.00
2022-08-22T18:24:56.682Z,26.30
2022-08-22T18:27:47.348Z,25.40
2022-08-22T18:30:23.892Z,17.90
2022-08-22T18:33:02.289Z,20.10
2022-08-22T18:35:54.483Z,20.00
2022-08-22T18:38:37.388Z,16.10
2022-08-22T18:41:31.354Z,23.50
2022-08-22T18:44:13.888Z,16.50
2022-08-22T18:46:52.515Z,19.50
2022-08-22T18:49:29.400Z,11.70
2022-08-22T18:52:35.983Z,16.10
2022-08-22T18:55:23.741Z,15.40
2022-08-22T18:58:36.557Z,18.50
2022-08-22T19:01:44.654Z,21.80
2022-08-22T19:04:47.613Z,22.40
2022-08-22T19:07:34.603Z,14.00
2022-08-22T19:10:18.068Z,13.10
2022-08-22T19:13:10.907Z,15.00
2022-08-22T19:15:56.381Z,23.30
2022-08-22T19:18:55.953Z,14.10
2022-08-22T19:22:02.505Z,17.00
2022-08-22T19:25:00.171Z,19.70
2022-08-22T19:27:36.619Z,14.70
2022-08-22T19:30:30.659Z,19.10
2022-08-22T19:33:43.350Z,17.10
2022-08-22T19:36:35.528Z,16.90
2022-08-22T19:39:13.090Z,15.70
2022-08-22T19:41:58.571Z,18.50
2022-08-22T19:44:42.898Z,21.60
2022-08-22T19:47:36.194Z,25.30
2022-08-22T19:50:34.941Z,25.80
2022-08-22T19:53:40.371Z,15.90
2022-08-22T19:56:29.877Z,19.60
2022-08-22T19:59:28.350Z,17.50
2022-08-22T20:02:17.358Z,20.10
2022-08-22T20:04:55.541Z,18.80
2022-08-22T20:07:45.898Z,21.80
2022-08-22T20:10:25.252Z,20.10
2022-08-22T20:13:34.797Z,28.10
2022-08-22T20:16:21.828Z,22.80
2022-08-22T20:19:09.244Z,20.20
2022-08-22T20:22:00.881Z,17.30
2022-08-22T20:24:47.019Z,25.30
2022-08-22T20:27:37.060Z,19.30
2022-08-22T20:30:22.796Z,17.00
2022-08-22T20:33:02.745Z,20.50
2022-08-22T20:35:48.310Z,17.40
2022-08-22T20:38:55.710Z,24.60
2022-08-22T20:41:56.763Z,22.50
2022-08-22T20:44:45.091Z,18.60
2022-08-22T20:47:41.132Z,24.30
2022-08-22T20:50:25.000Z,17.10
2022-08-22T20:53:22.656Z,19.20
2022-08-22T20:56:03.930Z,18.50
2022-08-22T20:58:50.821Z,21.60
2022-08-22T21:01:26.465Z,22.00
2022-08-22T21:04:06.345Z,16.50
2022-08-22T21:06:41.215Z,19.10
2022-08-22T21:09:59.729Z,22.90
2022-08-22T21:12:34.611Z,20.70
2022-08-22T21:15:10.565Z,20.50
2022-08-22T21:17:44.209Z,22.60
2022-08-22T21:20:24.003Z,18.20
2022-08-22T21:23:03.518Z,22.10
2022-08-22T21:25:58.061Z,23.20
2022-08-22T21:29:01.239Z,20.70
2022-08-22T21:31:46.944Z,24.00
2022-08-22T21:34:27.826Z,21.60
2022-08-22T21:37:17.874Z,23.10
2022-08-22T21:40:03.494Z,21.60
2022-08-22T21:42:42.406Z,21.50
2022-08-22T21:45:33.632Z,21.50
2022-08-22T21:48:24.654Z,22.90
2022-08-22T21:51:18.587Z,21.70
2022-08-22T21:54:17.565Z,24.00
2022-08-22T21:56:51.519Z,26.40
2022-08-22T21:59:51.076Z,29.90
2022-08-22T22:02:37.615Z,24.00
2022-08-22T22:05:17.039Z,27.00
2022-08-22T22:07:52.582Z,24.50
2022-08-22T22:10:28.570Z,18.40
2022-08-22T22:13:03.924Z,24.00
2022-08-22T22:15:46.415Z,19.90
2022-08-22T22:18:23.755Z,22.00
2022-08-22T22:20:59.408Z,28.90
2022-08-22T22:23:34.595Z,23.30
2022-08-22T22:26:10.111Z,22.60
2022-08-22T22:28:49.498Z,23.00
2022-08-22T22:31:24.628Z,25.10
2022-08-22T22:34:00.059Z,27.10
2022-08-22T22:36:36.434Z,22.30
2022-08-22T22:39:11.706Z,34.00
2022-08-22T22:41:46.596Z,37.50
2022-08-22T22:44:21.737Z,29.70
2022-08-22T22:47:03.963Z,29.20
2022-08-22T22:49:38.979Z,31.20
2022-08-22T22:52:13.628Z,34.00
2022-08-22T22:54:48.688Z,29.50
2022-08-22T22:57:25.659Z,36.20
2022-08-22T23:00:01.152Z,24.20
2022-08-22T23:02:36.169Z,27.10
2022-08-22T23:05:13.141Z,24.80
2022-08-22T23:07:48.421Z,24.10
2022-08-22T23:10:23.203Z,17.10
2022-08-22T23:12:57.980Z,23.10
2022-08-22T23:15:32.851Z,20.30
2022-08-22T23:18:08.033Z,17.70
2022-08-22T23:20:43.377Z,23.70
2022-08-22T23:23:19.122Z,23.20
2022-08-22T23:26:00.369Z,18.20
2022-08-22T23:28:35.163Z,22.50
2022-08-22T23:31:21.705Z,22.60
2022-08-22T23:33:56.133Z,21.50
2022-08-22T23:36:30.981Z,21.70
2022-08-22T23:39:06.406Z,23.10
2022-08-22T23:41:42.435Z,21.90
2022-08-22T23:44:19.184Z,25.00
2022-08-22T23:46:54.376Z,30.70
2022-08-22T23:49:29.192Z,22.80
2022-08-22T23:52:04.011Z,19.20
2022-08-22T23:54:39.033Z,28.10
2022-08-22T23:57:15.992Z,26.40
2022-08-22T23:59:57.945Z,23.30
